Time;durP1;ratioP1;P1;durP2;ratioP2;P2;SDS_P1;SDS_P2;PMS_P1;PMS_P2;Temp;Humidity;BMP_temperature;BMP_pressure;BME280_temperature;BME280_humidity;BME280_pressure;Samples;Min_cycle;Max_cycle;Signal;HPM_P1;HPM_P2
2024/01/03 00:01:08;;;;;;;;;;;;;;;-144.99;nan;52550.00;5087854;28;19967;-70
2024/01/03 00:03:36;;;;;;;;;;;;;;;-144.99;nan;52582.63;5085934;28;20012;-70
2024/01/03 00:06:03;;;;;;;;;;;;;;;-144.99;nan;52545.94;5086713;28;20001;-67
2024/01/03 00:08:30;;;;;;;;;;;;;;;-144.99;nan;52550.00;5085921;28;20023;-67
2024/01/03 00:10:57;;;;;;;;;;;;;;;-144.99;nan;52580.59;5087007;28;20456;-68
2024/01/03 00:13:51;;;;;;;;;;;;;;;-144.99;nan;52517.41;5085091;28;19940;-68
2024/01/03 00:16:21;;;;;;;;;;;;;;;-144.99;nan;52550.00;5048286;28;19928;-68
2024/01/03 00:18:51;;;;;;;;;;;;;;;-144.99;nan;52533.69;5086550;28;20556;-69
2024/01/03 00:21:18;;;;;;;;;;;;;;;-144.99;nan;52529.63;5087012;28;19946;-68
2024/01/03 00:23:48;;;;;;;;;;;;;;;-144.99;nan;52529.63;5086331;28;19967;-68
2024/01/03 00:26:15;;;;;;;;;;;;;;;-144.99;nan;52539.81;5082011;28;20019;-73
2024/01/03 00:28:42;;;;;;;;;;;;;;;-144.99;nan;52543.91;5081609;28;19971;-75
2024/01/03 00:31:10;;;;;;;;;;;;;;;-144.99;nan;52617.28;5086299;28;19985;-74
2024/01/03 00:33:40;;;;;;;;;;;;;;;-144.99;nan;52488.84;5084158;28;19932;-75
2024/01/03 00:36:08;;;;;;;;;;;;;;;-144.99;nan;52539.81;5082517;28;20050;-75
2024/01/03 00:38:45;;;;;;;;;;;;;;;-144.99;nan;52554.09;5037100;28;9999697;-75
2024/01/03 00:41:12;;;;;;;;;;;;;;;-144.99;nan;52537.78;5082675;28;19981;-75
2024/01/03 00:43:39;;;;;;;;;;;;;;;-144.99;nan;52545.94;5084230;28;20419;-74
2024/01/03 00:46:05;;;;;;;;;;;;;;;-144.99;nan;52539.81;5085817;28;19971;-75
2024/01/03 00:48:32;;;;;;;;;;;;;;;-144.99;nan;52562.25;5087930;28;19931;-78
2024/01/03 00:50:59;;;;;;;;;;;;;;;-144.99;nan;52570.38;5083993;28;19963;-75
2024/01/03 00:53:27;;;;;;;;;;;;;;;-144.99;nan;52570.38;5087414;28;19971;-72
2024/01/03 00:55:54;;;;;;;;;;;;;;;-144.99;nan;52560.19;5081955;28;19951;-73
2024/01/03 00:58:20;;;;;;;;;;;;;;;-144.99;nan;52545.94;5086192;28;20007;-73
2024/01/03 01:00:47;;;;;;;;;;;;;;;-144.99;nan;52554.09;5087835;28;19981;-72
2024/01/03 01:03:13;;;;;;;;;;;;;;;-144.99;nan;52574.47;5087687;28;20035;-72
2024/01/03 01:05:40;;;;;;;;;;;;;;;-144.99;nan;52558.16;5088624;28;19931;-72
2024/01/03 01:08:07;;;;;;;;;;;;;;;-144.99;nan;52570.38;5080974;28;20405;-72
2024/01/03 01:10:35;;;;;;;;;;;;;;;-144.99;nan;52550.00;5088412;28;20007;-71
2024/01/03 01:13:01;;;;;;;;;;;;;;;-144.99;nan;52590.78;5087080;28;19968;-71
2024/01/03 01:15:28;;;;;;;;;;;;;;;-144.99;nan;52598.94;5087827;28;19998;-70
2024/01/03 01:17:54;;;;;;;;;;;;;;;-144.99;nan;52554.09;5087853;28;20028;-70
2024/01/03 01:20:21;;;;;;;;;;;;;;;-144.99;nan;52537.78;5087716;28;20334;-70
2024/01/03 01:22:47;;;;;;;;;;;;;;;-144.99;nan;52564.28;5087347;28;19932;-69
2024/01/03 01:25:15;;;;;;;;;;;;;;;-144.99;nan;52513.31;5086404;28;19928;-70
2024/01/03 01:27:43;;;;;;;;;;;;;;;-144.99;nan;52590.78;5088158;28;19946;-70
2024/01/03 01:30:10;;;;;;;;;;;;;;;-144.99;nan;52607.09;5086943;28;19951;-71
2024/01/03 01:32:37;;;;;;;;;;;;;;;-144.99;nan;52560.19;5087920;28;20295;-70
2024/01/03 01:35:03;;;;;;;;;;;;;;;-144.99;nan;52582.63;5088576;28;19928;-70
2024/01/03 01:37:30;;;;;;;;;;;;;;;-144.99;nan;52560.19;5085855;28;19967;-70
2024/01/03 01:39:56;;;;;;;;;;;;;;;-144.99;nan;52550.00;5086337;28;19928;-70
2024/01/03 01:42:24;;;;;;;;;;;;;;;-144.99;nan;52545.94;5087030;28;20455;-70
2024/01/03 01:44:52;;;;;;;;;;;;;;;-144.99;nan;52574.47;5085663;28;19993;-73
2024/01/03 01:47:19;;;;;;;;;;;;;;;-144.99;nan;52562.25;5087889;28;19928;-71
2024/01/03 01:49:45;;;;;;;;;;;;;;;-144.99;nan;52558.16;5087953;28;20447;-72
2024/01/03 01:52:13;;;;;;;;;;;;;;;-144.99;nan;52566.31;5084711;28;20343;-71
2024/01/03 01:54:40;;;;;;;;;;;;;;;-144.99;nan;52570.38;5087739;28;20500;-70
2024/01/03 01:57:06;;;;;;;;;;;;;;;-144.99;nan;52562.25;5076719;28;19977;-69
2024/01/03 01:59:33;;;;;;;;;;;;;;;-144.99;nan;52607.09;5086523;28;19986;-67
2024/01/03 02:02:02;;;;;;;;;;;;;;;-144.99;nan;52590.78;5085497;28;19994;-66
2024/01/03 02:04:29;;;;;;;;;;;;;;;-144.99;nan;52574.47;5088026;28;19939;-66
2024/01/03 02:06:55;;;;;;;;;;;;;;;-144.99;nan;52537.78;5085876;28;19932;-66
2024/01/03 02:09:22;;;;;;;;;;;;;;;-144.99;nan;52558.16;5087577;28;19924;-66
2024/01/03 02:11:48;;;;;;;;;;;;;;;-144.99;nan;52570.38;5087547;28;20110;-66
2024/01/03 02:14:15;;;;;;;;;;;;;;;-144.99;nan;52541.84;5087173;28;19964;-67
2024/01/03 02:16:41;;;;;;;;;;;;;;;-144.99;nan;52550.00;5084503;28;20011;-67
2024/01/03 02:19:09;;;;;;;;;;;;;;;-144.99;nan;52566.31;5084655;28;19974;-67
2024/01/03 02:21:37;;;;;;;;;;;;;;;-144.99;nan;52578.53;5087062;28;19997;-67
2024/01/03 02:24:04;;;;;;;;;;;;;;;-144.99;nan;52554.09;5086397;28;20352;-67
2024/01/03 02:26:30;;;;;;;;;;;;;;;-144.99;nan;52603.00;5083504;28;20324;-67
2024/01/03 02:28:57;;;;;;;;;;;;;;;-144.99;nan;52580.59;5067041;28;19993;-67
2024/01/03 02:31:23;;;;;;;;;;;;;;;-144.99;nan;52570.38;5086913;28;20039;-67
2024/01/03 02:33:50;;;;;;;;;;;;;;;-144.99;nan;52619.31;5087361;28;19974;-66
2024/01/03 02:36:16;;;;;;;;;;;;;;;-144.99;nan;52558.16;5089424;28;19967;-66
2024/01/03 02:38:46;;;;;;;;;;;;;;;-144.99;nan;52586.69;5089860;28;20020;-67
2024/01/03 02:41:12;;;;;;;;;;;;;;;-144.99;nan;52576.50;5090955;28;19974;-67
2024/01/03 02:43:39;;;;;;;;;;;;;;;-144.99;nan;52596.88;5090682;28;20372;-67
2024/01/03 02:46:05;;;;;;;;;;;;;;;-144.99;nan;52566.31;5090620;28;20492;-67
2024/01/03 02:48:32;;;;;;;;;;;;;;;-144.99;nan;52611.16;5089476;28;19928;-66
2024/01/03 02:50:58;;;;;;;;;;;;;;;-144.99;nan;52566.31;5091150;28;20052;-70
2024/01/03 02:53:25;;;;;;;;;;;;;;;-144.99;nan;52566.31;5089426;28;20397;-70
2024/01/03 02:55:53;;;;;;;;;;;;;;;-144.99;nan;52564.28;5085207;28;20191;-71
2024/01/03 02:58:19;;;;;;;;;;;;;;;-144.99;nan;52574.47;5087455;28;20397;-71
2024/01/03 03:00:46;;;;;;;;;;;;;;;-144.99;nan;52564.28;5091034;28;20005;-73
2024/01/03 03:03:12;;;;;;;;;;;;;;;-144.99;nan;52603.00;5091213;28;19971;-72
2024/01/03 03:05:39;;;;;;;;;;;;;;;-144.99;nan;52543.91;5091405;28;20051;-72
2024/01/03 03:08:05;;;;;;;;;;;;;;;-144.99;nan;52566.31;5089984;28;19990;-73
2024/01/03 03:10:32;;;;;;;;;;;;;;;-144.99;nan;52570.38;5088622;28;20422;-73
2024/01/03 03:13:00;;;;;;;;;;;;;;;-144.99;nan;52607.09;5096146;28;19931;-73
2024/01/03 03:15:26;;;;;;;;;;;;;;;-144.99;nan;52605.03;5092116;28;19956;-72
2024/01/03 03:17:52;;;;;;;;;;;;;;;-144.99;nan;52598.94;5083929;28;19930;-73
2024/01/03 03:20:19;;;;;;;;;;;;;;;-144.99;nan;52645.81;5088568;28;20011;-73
2024/01/03 03:22:45;;;;;;;;;;;;;;;-144.99;nan;52603.00;5084835;28;19956;-72
2024/01/03 03:25:12;;;;;;;;;;;;;;;-144.99;nan;52598.94;5091127;28;19967;-74
2024/01/03 03:27:38;;;;;;;;;;;;;;;-144.99;nan;52605.03;5082665;28;19932;-73
2024/01/03 03:30:07;;;;;;;;;;;;;;;-144.99;nan;52594.84;5089569;28;19978;-71
2024/01/03 03:32:33;;;;;;;;;;;;;;;-144.99;nan;52598.94;5086960;28;20001;-76
2024/01/03 03:35:00;;;;;;;;;;;;;;;-144.99;nan;52598.94;5090796;28;19967;-70
2024/01/03 03:37:26;;;;;;;;;;;;;;;-144.99;nan;52631.53;5090589;28;20309;-69
2024/01/03 03:39:53;;;;;;;;;;;;;;;-144.99;nan;52613.19;5086959;28;19970;-69
2024/01/03 03:42:19;;;;;;;;;;;;;;;-144.99;nan;52619.31;5088209;28;19954;-68
2024/01/03 03:44:46;;;;;;;;;;;;;;;-144.99;nan;52574.47;5089948;28;19977;-69
2024/01/03 03:47:14;;;;;;;;;;;;;;;-144.99;nan;52637.66;5087350;28;19960;-70
2024/01/03 03:49:40;;;;;;;;;;;;;;;-144.99;nan;52619.31;5090283;28;19924;-69
2024/01/03 03:52:07;;;;;;;;;;;;;;;-144.99;nan;52598.94;5089632;28;19943;-69
2024/01/03 03:54:33;;;;;;;;;;;;;;;-144.99;nan;52603.00;5088403;28;19956;-70
2024/01/03 03:56:59;;;;;;;;;;;;;;;-144.99;nan;52615.25;5089333;28;20042;-68
2024/01/03 03:59:26;;;;;;;;;;;;;;;-144.99;nan;52607.09;5089111;28;19970;-68
2024/01/03 04:01:54;;;;;;;;;;;;;;;-144.99;nan;52570.38;5089829;28;19957;-68
2024/01/03 04:04:22;;;;;;;;;;;;;;;-144.99;nan;52594.84;5087558;28;20114;-68
2024/01/03 04:06:49;;;;;;;;;;;;;;;-144.99;nan;52588.75;5089290;28;20475;-68
2024/01/03 04:09:15;;;;;;;;;;;;;;;-144.99;nan;52578.53;5088825;28;19970;-69
2024/01/03 04:11:42;;;;;;;;;;;;;;;-144.99;nan;52582.63;5089481;28;20340;-68
2024/01/03 04:14:08;;;;;;;;;;;;;;;-144.99;nan;52611.16;5088549;28;19928;-69
2024/01/03 04:16:35;;;;;;;;;;;;;;;-144.99;nan;52627.47;5090156;28;20014;-69
2024/01/03 04:19:02;;;;;;;;;;;;;;;-144.99;nan;52609.13;5089454;28;19975;-69
2024/01/03 04:21:30;;;;;;;;;;;;;;;-144.99;nan;52574.47;5088266;28;19994;-69
2024/01/03 04:23:56;;;;;;;;;;;;;;;-144.99;nan;52596.88;5083615;28;20297;-70
2024/01/03 04:26:23;;;;;;;;;;;;;;;-144.99;nan;52613.19;5088880;28;20090;-70
2024/01/03 04:28:49;;;;;;;;;;;;;;;-144.99;nan;52623.38;5085521;28;19952;-70
2024/01/03 04:31:16;;;;;;;;;;;;;;;-144.99;nan;52582.63;5091138;28;19972;-70
2024/01/03 04:33:43;;;;;;;;;;;;;;;-144.99;nan;52594.84;5086079;28;20023;-70
2024/01/03 04:36:10;;;;;;;;;;;;;;;-144.99;nan;52586.69;5089449;28;19960;-72
2024/01/03 04:38:38;;;;;;;;;;;;;;;-144.99;nan;52578.53;5089370;28;20339;-69
2024/01/03 04:41:05;;;;;;;;;;;;;;;-144.99;nan;52598.94;5088859;28;19998;-69
2024/01/03 04:43:31;;;;;;;;;;;;;;;-144.99;nan;52615.25;5086649;28;19975;-68
2024/01/03 04:45:58;;;;;;;;;;;;;;;-144.99;nan;52590.78;5086554;28;20007;-67
2024/01/03 04:48:24;;;;;;;;;;;;;;;-144.99;nan;52607.09;5088673;28;19969;-71
2024/01/03 04:50:51;;;;;;;;;;;;;;;-144.99;nan;52574.47;5088917;28;20344;-71
2024/01/03 04:53:17;;;;;;;;;;;;;;;-144.99;nan;52556.13;5088324;28;19928;-70
2024/01/03 04:55:45;;;;;;;;;;;;;;;-144.99;nan;52625.44;5081025;28;19924;-71
2024/01/03 04:58:12;;;;;;;;;;;;;;;-144.99;nan;52594.84;5086500;28;19989;-72
2024/01/03 05:00:38;;;;;;;;;;;;;;;-144.99;nan;52590.78;5083162;28;19983;-71
2024/01/03 05:03:05;;;;;;;;;;;;;;;-144.99;nan;52619.31;5088490;28;20038;-71
2024/01/03 05:05:31;;;;;;;;;;;;;;;-144.99;nan;52603.00;5084879;28;20035;-71
2024/01/03 05:07:58;;;;;;;;;;;;;;;-144.99;nan;52603.00;5096426;28;19959;-71
2024/01/03 05:10:24;;;;;;;;;;;;;;;-144.99;nan;52590.78;5094024;28;19967;-72
2024/01/03 05:12:52;;;;;;;;;;;;;;;-144.99;nan;52590.78;5092136;28;19947;-72
2024/01/03 05:15:19;;;;;;;;;;;;;;;-144.99;nan;52611.16;5088473;28;19993;-73
2024/01/03 05:17:46;;;;;;;;;;;;;;;-144.99;nan;52627.47;5090346;28;19932;-73
2024/01/03 05:20:13;;;;;;;;;;;;;;;-144.99;nan;52582.63;5089300;28;20056;-71
2024/01/03 05:22:39;;;;;;;;;;;;;;;-144.99;nan;52623.38;5089955;28;20371;-71
2024/01/03 05:25:07;;;;;;;;;;;;;;;-144.99;nan;52609.13;5086113;28;19924;-72
2024/01/03 05:27:33;;;;;;;;;;;;;;;-144.99;nan;52598.94;5081762;28;20396;-70
2024/01/03 05:30:01;;;;;;;;;;;;;;;-144.99;nan;52562.25;5087952;28;19936;-71
2024/01/03 05:32:28;;;;;;;;;;;;;;;-144.99;nan;52615.25;5087869;28;19932;-72
2024/01/03 05:34:54;;;;;;;;;;;;;;;-144.99;nan;52582.63;5087691;28;19968;-71
2024/01/03 05:37:20;;;;;;;;;;;;;;;-144.99;nan;52594.84;5086260;28;19975;-71
2024/01/03 05:39:47;;;;;;;;;;;;;;;-144.99;nan;52603.00;5086299;28;20409;-71
2024/01/03 05:42:13;;;;;;;;;;;;;;;-144.99;nan;52598.94;5088169;28;20309;-72
2024/01/03 05:44:40;;;;;;;;;;;;;;;-144.99;nan;52615.25;5089249;28;20271;-72
2024/01/03 05:47:08;;;;;;;;;;;;;;;-144.99;nan;52582.63;5091278;28;19932;-71
2024/01/03 05:49:35;;;;;;;;;;;;;;;-144.99;nan;52598.94;5082391;28;19989;-71
2024/01/03 05:52:01;;;;;;;;;;;;;;;-144.99;nan;52541.84;5086877;28;20357;-72
2024/01/03 05:54:29;;;;;;;;;;;;;;;-144.99;nan;52592.81;5087910;28;19963;-72
2024/01/03 05:56:55;;;;;;;;;;;;;;;-144.99;nan;52596.88;5078737;28;19928;-71
2024/01/03 05:59:21;;;;;;;;;;;;;;;-144.99;nan;52643.78;5084839;28;20015;-70
2024/01/03 06:01:48;;;;;;;;;;;;;;;-144.99;nan;52611.16;5088042;28;19975;-72
2024/01/03 06:04:16;;;;;;;;;;;;;;;-144.99;nan;52584.66;5089919;28;19992;-73
2024/01/03 06:06:42;;;;;;;;;;;;;;;-144.99;nan;52627.47;5087584;28;19950;-72
2024/01/03 06:09:09;;;;;;;;;;;;;;;-144.99;nan;52598.94;5083733;28;19977;-72
2024/01/03 06:11:36;;;;;;;;;;;;;;;-144.99;nan;52615.25;5088090;28;20014;-72
2024/01/03 06:14:02;;;;;;;;;;;;;;;-144.99;nan;52590.78;5089701;28;19971;-75
2024/01/03 06:16:29;;;;;;;;;;;;;;;-144.99;nan;52566.31;5090150;28;20056;-76
2024/01/03 06:18:55;;;;;;;;;;;;;;;-144.99;nan;52594.84;4738314;28;10000133;-75
2024/01/03 06:21:23;;;;;;;;;;;;;;;-144.99;nan;52578.53;5065574;28;19924;-76
2024/01/03 06:23:50;;;;;;;;;;;;;;;-144.99;nan;52564.28;5089826;28;20029;-75
2024/01/03 06:26:16;;;;;;;;;;;;;;;-144.99;nan;52586.69;5110798;28;20111;-74
2024/01/03 06:28:42;;;;;;;;;;;;;;;-144.99;nan;52625.44;5089971;28;20382;-75
2024/01/03 06:31:09;;;;;;;;;;;;;;;-144.99;nan;52603.00;5085996;28;20014;-75
2024/01/03 06:33:35;;;;;;;;;;;;;;;-144.99;nan;52623.38;5089295;28;20568;-74
2024/01/03 06:36:02;;;;;;;;;;;;;;;-144.99;nan;52586.69;5089140;28;19967;-75
2024/01/03 06:38:30;;;;;;;;;;;;;;;-144.99;nan;52603.00;5088626;28;20314;-75
2024/01/03 06:40:56;;;;;;;;;;;;;;;-144.99;nan;52598.94;5087858;28;20035;-75
2024/01/03 06:43:23;;;;;;;;;;;;;;;-144.99;nan;52611.16;5088278;28;19928;-76
2024/01/03 06:45:49;;;;;;;;;;;;;;;-144.99;nan;52566.31;5083878;28;19959;-75
2024/01/03 06:48:16;;;;;;;;;;;;;;;-144.99;nan;52592.81;5083212;28;19985;-75
2024/01/03 06:50:42;;;;;;;;;;;;;;;-144.99;nan;52574.47;5086582;28;19963;-75
2024/01/03 06:53:09;;;;;;;;;;;;;;;-144.99;nan;52611.16;5085180;28;19967;-75
2024/01/03 06:55:36;;;;;;;;;;;;;;;-144.99;nan;52562.25;5082486;28;19928;-76
2024/01/03 06:58:03;;;;;;;;;;;;;;;-144.99;nan;52582.63;5084769;28;19959;-73
2024/01/03 07:00:29;;;;;;;;;;;;;;;-144.99;nan;52629.50;5080902;28;19995;-74
2024/01/03 07:02:56;;;;;;;;;;;;;;;-144.99;nan;52598.94;5079915;28;19962;-74
2024/01/03 07:05:23;;;;;;;;;;;;;;;-144.99;nan;52619.31;5087289;28;20039;-74
2024/01/03 07:07:49;;;;;;;;;;;;;;;-144.99;nan;52562.25;5089283;28;19963;-74
2024/01/03 07:10:16;;;;;;;;;;;;;;;-144.99;nan;52590.78;5086574;28;20398;-74
2024/01/03 07:12:44;;;;;;;;;;;;;;;-144.99;nan;52570.38;5085514;28;20010;-74
2024/01/03 07:15:17;;;;;;;;;;;;;;;-144.99;nan;52605.03;5085704;28;19981;-74
2024/01/03 07:17:43;;;;;;;;;;;;;;;-144.99;nan;52568.34;5080369;28;19934;-74
2024/01/03 07:20:10;;;;;;;;;;;;;;;-144.99;nan;52556.13;5086729;28;20015;-73
2024/01/03 07:22:37;;;;;;;;;;;;;;;-144.99;nan;52603.00;5087797;28;19928;-74
2024/01/03 07:25:03;;;;;;;;;;;;;;;-144.99;nan;52574.47;5084753;28;19932;-74
2024/01/03 07:27:31;;;;;;;;;;;;;;;-144.99;nan;52588.75;5081511;28;19928;-74
2024/01/03 07:29:58;;;;;;;;;;;;;;;-144.99;nan;52578.53;5084100;28;19932;-74
2024/01/03 07:32:25;;;;;;;;;;;;;;;-144.99;nan;52594.84;5084945;28;20758;-74
2024/01/03 07:34:52;;;;;;;;;;;;;;;-144.99;nan;52639.69;5086216;28;20105;-74
2024/01/03 07:37:18;;;;;;;;;;;;;;;-144.99;nan;52578.53;5085688;28;19987;-74
2024/01/03 07:39:44;;;;;;;;;;;;;;;-144.99;nan;52545.94;5077447;28;19986;-75
2024/01/03 07:42:11;;;;;;;;;;;;;;;-144.99;nan;52603.00;5085972;28;20008;-73
2024/01/03 07:44:41;;;;;;;;;;;;;;;-144.99;nan;52578.53;5086469;28;20398;-74
2024/01/03 07:47:09;;;;;;;;;;;;;;;-144.99;nan;52603.00;5086597;28;19965;-74
2024/01/03 07:49:36;;;;;;;;;;;;;;;-144.99;nan;52598.94;5087018;28;20252;-73
2024/01/03 07:52:02;;;;;;;;;;;;;;;-144.99;nan;52598.94;5086443;28;19928;-72
2024/01/03 07:54:29;;;;;;;;;;;;;;;-144.99;nan;52607.09;5086646;28;19963;-73
2024/01/03 07:56:56;;;;;;;;;;;;;;;-144.99;nan;52603.00;5079292;28;19932;-73
2024/01/03 07:59:23;;;;;;;;;;;;;;;-144.99;nan;52574.47;5086906;28;19928;-73
2024/01/03 08:01:49;;;;;;;;;;;;;;;-144.99;nan;52564.28;5081505;28;19930;-73
2024/01/03 08:04:17;;;;;;;;;;;;;;;-144.99;nan;52594.84;5086895;28;20521;-73
2024/01/03 08:06:44;;;;;;;;;;;;;;;-144.99;nan;52586.69;5084328;28;19979;-74
2024/01/03 08:09:10;;;;;;;;;;;;;;;-144.99;nan;52615.25;5086559;28;19924;-72
2024/01/03 08:11:37;;;;;;;;;;;;;;;-144.99;nan;52611.16;5085253;28;19928;-72
2024/01/03 08:14:04;;;;;;;;;;;;;;;-144.99;nan;52568.34;5085142;28;19950;-72
2024/01/03 08:16:30;;;;;;;;;;;;;;;-144.99;nan;52574.47;5085259;28;20415;-73
2024/01/03 08:18:57;;;;;;;;;;;;;;;-144.99;nan;52582.63;5086048;28;20015;-74
2024/01/03 08:21:25;;;;;;;;;;;;;;;-144.99;nan;52590.78;5086299;28;20015;-73
2024/01/03 08:23:51;;;;;;;;;;;;;;;-144.99;nan;52623.38;5085541;28;19928;-74
2024/01/03 08:26:20;;;;;;;;;;;;;;;-144.99;nan;52619.31;5084665;28;20357;-72
2024/01/03 08:28:46;;;;;;;;;;;;;;;-144.99;nan;52586.69;5080716;28;19928;-73
2024/01/03 08:31:14;;;;;;;;;;;;;;;-144.99;nan;52594.84;5083818;28;19932;-72
2024/01/03 08:33:40;;;;;;;;;;;;;;;-144.99;nan;52625.44;5089298;28;19968;-72
2024/01/03 08:36:11;;;;;;;;;;;;;;;-144.99;nan;52578.53;5082780;28;19988;-72
2024/01/03 08:38:39;;;;;;;;;;;;;;;-144.99;nan;52598.94;5082598;28;19943;-72
2024/01/03 08:41:12;;;;;;;;;;;;;;;-144.99;nan;52600.97;5085997;28;19977;-72
2024/01/03 08:43:38;;;;;;;;;;;;;;;-144.99;nan;52578.53;5086123;28;19932;-72
2024/01/03 08:46:05;;;;;;;;;;;;;;;-144.99;nan;52584.66;5085927;28;20035;-73
2024/01/03 08:48:31;;;;;;;;;;;;;;;-144.99;nan;52586.69;5080561;28;19973;-74
2024/01/03 08:50:58;;;;;;;;;;;;;;;-144.99;nan;52619.31;5086070;28;20015;-72
2024/01/03 08:53:24;;;;;;;;;;;;;;;-144.99;nan;52611.16;5088680;28;19967;-73
2024/01/03 08:55:52;;;;;;;;;;;;;;;-144.99;nan;52605.03;5079360;28;20017;-73
2024/01/03 08:58:19;;;;;;;;;;;;;;;-144.99;nan;52570.38;5080250;28;20030;-74
2024/01/03 09:00:46;;;;;;;;;;;;;;;-144.99;nan;52578.53;5082078;28;19970;-74
2024/01/03 09:03:12;;;;;;;;;;;;;;;-144.99;nan;52623.38;5085122;28;19994;-74
2024/01/03 09:05:38;;;;;;;;;;;;;;;-144.99;nan;52603.00;5088237;28;19927;-73
2024/01/03 09:08:05;;;;;;;;;;;;;;;-144.99;nan;52586.69;5088475;28;20373;-73
2024/01/03 09:10:32;;;;;;;;;;;;;;;-144.99;nan;52594.84;5084080;28;20339;-73
2024/01/03 09:13:00;;;;;;;;;;;;;;;-144.99;nan;52590.78;5084800;28;20352;-73
2024/01/03 09:15:26;;;;;;;;;;;;;;;-144.99;nan;52574.47;5089000;28;20167;-73
2024/01/03 09:17:53;;;;;;;;;;;;;;;-144.99;nan;52586.69;5082901;28;20019;-72
2024/01/03 09:20:19;;;;;;;;;;;;;;;-144.99;nan;52570.38;5084433;28;20386;-73
2024/01/03 09:22:45;;;;;;;;;;;;;;;-144.99;nan;52558.16;5082359;28;20477;-74
2024/01/03 09:25:12;;;;;;;;;;;;;;;-144.99;nan;52596.88;5081857;28;20102;-72
2024/01/03 09:27:38;;;;;;;;;;;;;;;-144.99;nan;52605.03;5084417;28;19928;-73
2024/01/03 09:30:07;;;;;;;;;;;;;;;-144.99;nan;52582.63;5084626;28;19931;-72
2024/01/03 09:32:35;;;;;;;;;;;;;;;-144.99;nan;52639.69;5084803;28;19940;-73
2024/01/03 09:35:01;;;;;;;;;;;;;;;-144.99;nan;52578.53;5083098;28;19932;-73
2024/01/03 09:37:29;;;;;;;;;;;;;;;-144.99;nan;52596.88;5085143;28;20018;-73
2024/01/03 09:39:56;;;;;;;;;;;;;;;-144.99;nan;52615.25;5084599;28;20011;-73
2024/01/03 09:42:23;;;;;;;;;;;;;;;-144.99;nan;52574.47;5082460;28;19932;-75
2024/01/03 09:44:50;;;;;;;;;;;;;;;-144.99;nan;52590.78;5081718;28;20374;-74
2024/01/03 09:47:20;;;;;;;;;;;;;;;-144.99;nan;52539.81;5084297;28;19928;-75
2024/01/03 09:49:47;;;;;;;;;;;;;;;-144.99;nan;52611.16;5084701;28;19924;-74
2024/01/03 09:52:13;;;;;;;;;;;;;;;-144.99;nan;52590.78;5082187;28;20007;-74
2024/01/03 09:54:40;;;;;;;;;;;;;;;-144.99;nan;52574.47;5082992;28;19928;-74
2024/01/03 09:57:07;;;;;;;;;;;;;;;-144.99;nan;52562.25;5086935;28;20413;-74
2024/01/03 09:59:33;;;;;;;;;;;;;;;-144.99;nan;52603.00;5088735;28;19943;-73
2024/01/03 10:02:00;;;;;;;;;;;;;;;-144.99;nan;52582.63;5077114;28;19928;-73
2024/01/03 10:04:28;;;;;;;;;;;;;;;-144.99;nan;52547.97;5084628;28;20467;-73
2024/01/03 10:06:57;;;;;;;;;;;;;;;-144.99;nan;52586.69;5084751;28;19981;-73
2024/01/03 10:09:24;;;;;;;;;;;;;;;-144.99;nan;52562.25;5084592;28;19928;-73
2024/01/03 10:11:52;;;;;;;;;;;;;;;-144.99;nan;52556.13;5082793;28;19935;-73
2024/01/03 10:14:19;;;;;;;;;;;;;;;-144.99;nan;52586.69;5084150;28;19924;-73
2024/01/03 10:16:47;;;;;;;;;;;;;;;-144.99;nan;52574.47;5084218;28;20018;-74
2024/01/03 10:19:15;;;;;;;;;;;;;;;-144.99;nan;52554.09;5084776;28;20165;-74
2024/01/03 10:21:48;;;;;;;;;;;;;;;-144.99;nan;52566.31;5083322;28;20027;-74
2024/01/03 10:24:14;;;;;;;;;;;;;;;-144.99;nan;52582.63;5081971;28;19928;-74
2024/01/03 10:26:40;;;;;;;;;;;;;;;-144.99;nan;52566.31;5083380;28;20015;-75
2024/01/03 10:29:10;;;;;;;;;;;;;;;-144.99;nan;52570.38;5079210;28;19971;-74
2024/01/03 10:31:36;;;;;;;;;;;;;;;-144.99;nan;52582.63;5077187;28;19928;-74
2024/01/03 10:34:04;;;;;;;;;;;;;;;-144.99;nan;52594.84;5078997;28;19963;-74
2024/01/03 10:36:32;;;;;;;;;;;;;;;-144.99;nan;52586.69;5084845;28;19932;-74
2024/01/03 10:39:00;;;;;;;;;;;;;;;-144.99;nan;52603.00;5085054;28;20568;-74
2024/01/03 10:41:27;;;;;;;;;;;;;;;-144.99;nan;52570.38;5088570;28;20449;-73
2024/01/03 10:43:55;;;;;;;;;;;;;;;-144.99;nan;52576.50;5083488;28;19928;-74
2024/01/03 10:46:22;;;;;;;;;;;;;;;-144.99;nan;52631.53;5083629;28;19928;-73
2024/01/03 10:48:49;;;;;;;;;;;;;;;-144.99;nan;52558.16;5085101;28;20190;-72
2024/01/03 10:51:16;;;;;;;;;;;;;;;-144.99;nan;52623.38;5084555;28;19924;-73
2024/01/03 10:53:44;;;;;;;;;;;;;;;-144.99;nan;52596.88;5085250;28;20146;-73
2024/01/03 10:56:12;;;;;;;;;;;;;;;-144.99;nan;52588.75;5084764;28;19936;-73
2024/01/03 10:58:40;;;;;;;;;;;;;;;-144.99;nan;52615.25;5088841;28;20186;-72
2024/01/03 11:01:11;;;;;;;;;;;;;;;-144.99;nan;52574.47;5087901;28;19934;-73
2024/01/03 11:03:40;;;;;;;;;;;;;;;-144.99;nan;52582.63;5072931;28;20007;-73
2024/01/03 11:06:11;;;;;;;;;;;;;;;-144.99;nan;52592.81;5087491;28;19982;-73
2024/01/03 11:08:43;;;;;;;;;;;;;;;-144.99;nan;52566.31;5088259;28;20000;-73
2024/01/03 11:11:10;;;;;;;;;;;;;;;-144.99;nan;52631.53;5087710;28;19947;-73
2024/01/03 11:13:39;;;;;;;;;;;;;;;-144.99;nan;52592.81;5087717;28;20049;-73
2024/01/03 11:16:06;;;;;;;;;;;;;;;-144.99;nan;52562.25;5084757;28;19971;-72
2024/01/03 11:18:52;;;;;;;;;;;;;;;-144.99;nan;52619.31;5087365;28;19944;-72
2024/01/03 11:21:37;;;;;;;;;;;;;;;-144.99;nan;52649.88;5085356;28;20425;-73
2024/01/03 11:24:06;;;;;;;;;;;;;;;-144.99;nan;52619.31;5077677;28;19935;-72
2024/01/03 11:26:46;;;;;;;;;;;;;;;-144.99;nan;52607.09;5086856;28;19932;-73
2024/01/03 11:29:42;;;;;;;;;;;;;;;-144.99;nan;52617.28;5084467;28;19932;-72
2024/01/03 11:32:09;;;;;;;;;;;;;;;-144.99;nan;52570.38;5087329;28;19934;-73
2024/01/03 11:34:39;;;;;;;;;;;;;;;-144.99;nan;52603.00;5087931;28;19935;-72
2024/01/03 11:37:05;;;;;;;;;;;;;;;-144.99;nan;52580.59;5089177;28;19932;-73
2024/01/03 11:39:36;;;;;;;;;;;;;;;-144.99;nan;52545.94;5089611;28;19932;-72
2024/01/03 11:42:03;;;;;;;;;;;;;;;-144.99;nan;52596.88;5094546;28;19928;-74
2024/01/03 11:44:31;;;;;;;;;;;;;;;-144.99;nan;52617.28;5090647;28;19973;-72
2024/01/03 11:46:58;;;;;;;;;;;;;;;-144.99;nan;52605.03;5095347;28;20363;-75
2024/01/03 11:49:24;;;;;;;;;;;;;;;-144.99;nan;52600.97;5098809;28;19990;-73
2024/01/03 11:51:51;;;;;;;;;;;;;;;-144.99;nan;52580.59;5100918;28;19981;-73
2024/01/03 11:54:17;;;;;;;;;;;;;;;-144.99;nan;52586.69;5094383;28;19928;-75
2024/01/03 11:56:44;;;;;;;;;;;;;;;-144.99;nan;52607.09;5088743;28;19934;-75
2024/01/03 11:59:10;;;;;;;;;;;;;;;-144.99;nan;52594.84;5094110;28;19928;-73
2024/01/03 12:01:38;;;;;;;;;;;;;;;-144.99;nan;52578.53;5089527;28;19995;-74
2024/01/03 12:04:08;;;;;;;;;;;;;;;-144.99;nan;52615.25;5087537;28;19932;-74
2024/01/03 12:06:35;;;;;;;;;;;;;;;-144.99;nan;52615.25;5086577;28;20015;-74
2024/01/03 12:09:02;;;;;;;;;;;;;;;-144.99;nan;52588.75;5085682;28;20014;-74
2024/01/03 12:11:29;;;;;;;;;;;;;;;-144.99;nan;52580.59;5086478;28;20154;-75
2024/01/03 12:13:55;;;;;;;;;;;;;;;-144.99;nan;52598.94;5087298;28;20505;-74
2024/01/03 12:16:22;;;;;;;;;;;;;;;-144.99;nan;52582.63;5086640;28;20048;-74
2024/01/03 12:18:51;;;;;;;;;;;;;;;-144.99;nan;52594.84;5083263;28;20434;-75
2024/01/03 12:21:17;;;;;;;;;;;;;;;-144.99;nan;52637.66;5083306;28;20011;-73
2024/01/03 12:23:54;;;;;;;;;;;;;;;-144.99;nan;52590.78;5091229;28;19970;-73
2024/01/03 12:26:20;;;;;;;;;;;;;;;-144.99;nan;52570.38;5093787;28;20019;-73
2024/01/03 12:28:47;;;;;;;;;;;;;;;-144.99;nan;52603.00;5085398;28;19927;-73
2024/01/03 12:31:19;;;;;;;;;;;;;;;-144.99;nan;52611.16;5089697;28;19993;-73
2024/01/03 12:33:46;;;;;;;;;;;;;;;-144.99;nan;52641.72;5097662;28;19959;-73
2024/01/03 12:36:14;;;;;;;;;;;;;;;-144.99;nan;52594.84;5094934;28;20024;-74
2024/01/03 12:38:41;;;;;;;;;;;;;;;-144.99;nan;52598.94;5085818;28;20009;-74
2024/01/03 12:41:07;;;;;;;;;;;;;;;-144.99;nan;52576.50;5085972;28;20087;-74
2024/01/03 12:43:34;;;;;;;;;;;;;;;-144.99;nan;52615.25;5089770;28;19931;-73
2024/01/03 12:46:00;;;;;;;;;;;;;;;-144.99;nan;52586.69;5087670;28;19928;-73